sensor_id;sensor_type;location;lat;lon;timestamp;P1;durP1;ratioP1;P2;durP2;ratioP2
57846;SDS011;43675;50.030;21.952;2024-03-02T00:00:33;61.30;;;54.70;;
57846;SDS011;43675;50.030;21.952;2024-03-02T00:03:20;61.30;;;54.60;;
57846;SDS011;43675;50.030;21.952;2024-03-02T00:05:54;60.50;;;53.90;;
57846;SDS011;43675;50.030;21.952;2024-03-02T00:08:24;62.20;;;55.20;;
57846;SDS011;43675;50.030;21.952;2024-03-02T00:10:57;61.50;;;54.60;;
57846;SDS011;43675;50.030;21.952;2024-03-02T00:13:25;61.00;;;54.40;;
57846;SDS011;43675;50.030;21.952;2024-03-02T00:15:52;60.70;;;54.10;;
57846;SDS011;43675;50.030;21.952;2024-03-02T00:18:23;60.10;;;53.70;;
57846;SDS011;43675;50.030;21.952;2024-03-02T00:20:55;60.00;;;53.30;;
57846;SDS011;43675;50.030;21.952;2024-03-02T00:23:23;59.90;;;53.60;;
57846;SDS011;43675;50.030;21.952;2024-03-02T00:25:57;60.10;;;53.60;;
57846;SDS011;43675;50.030;21.952;2024-03-02T00:28:25;60.60;;;54.00;;
57846;SDS011;43675;50.030;21.952;2024-03-02T00:33:33;62.80;;;55.00;;
57846;SDS011;43675;50.030;21.952;2024-03-02T00:36:02;61.70;;;55.00;;
57846;SDS011;43675;50.030;21.952;2024-03-02T00:38:30;62.30;;;55.60;;
57846;SDS011;43675;50.030;21.952;2024-03-02T00:41:04;63.50;;;55.40;;
57846;SDS011;43675;50.030;21.952;2024-03-02T00:46:19;61.90;;;55.20;;
57846;SDS011;43675;50.030;21.952;2024-03-02T00:48:57;64.60;;;57.00;;
57846;SDS011;43675;50.030;21.952;2024-03-02T00:51:25;62.50;;;55.80;;
57846;SDS011;43675;50.030;21.952;2024-03-02T00:53:59;60.90;;;54.30;;
57846;SDS011;43675;50.030;21.952;2024-03-02T00:56:30;60.40;;;54.00;;
57846;SDS011;43675;50.030;21.952;2024-03-02T00:59:05;61.20;;;54.50;;
57846;SDS011;43675;50.030;21.952;2024-03-02T01:01:38;61.00;;;54.50;;
57846;SDS011;43675;50.030;21.952;2024-03-02T01:04:04;58.90;;;52.60;;
57846;SDS011;43675;50.030;21.952;2024-03-02T01:06:31;59.80;;;53.40;;
57846;SDS011;43675;50.030;21.952;2024-03-02T01:09:04;60.30;;;53.70;;
57846;SDS011;43675;50.030;21.952;2024-03-02T01:11:30;59.40;;;52.80;;
57846;SDS011;43675;50.030;21.952;2024-03-02T01:13:57;61.40;;;53.30;;
57846;SDS011;43675;50.030;21.952;2024-03-02T01:16:23;59.50;;;52.60;;
57846;SDS011;43675;50.030;21.952;2024-03-02T01:18:50;58.50;;;51.90;;
57846;SDS011;43675;50.030;21.952;2024-03-02T01:21:17;61.00;;;53.90;;
57846;SDS011;43675;50.030;21.952;2024-03-02T01:23:43;60.30;;;53.60;;
57846;SDS011;43675;50.030;21.952;2024-03-02T01:26:10;61.00;;;53.90;;
57846;SDS011;43675;50.030;21.952;2024-03-02T01:28:36;60.70;;;52.70;;
57846;SDS011;43675;50.030;21.952;2024-03-02T01:31:03;63.20;;;55.20;;
57846;SDS011;43675;50.030;21.952;2024-03-02T01:33:30;60.20;;;53.50;;
57846;SDS011;43675;50.030;21.952;2024-03-02T01:35:56;61.20;;;54.40;;
57846;SDS011;43675;50.030;21.952;2024-03-02T01:38:23;62.60;;;54.70;;
57846;SDS011;43675;50.030;21.952;2024-03-02T01:40:49;64.90;;;54.70;;
57846;SDS011;43675;50.030;21.952;2024-03-02T01:43:16;62.30;;;54.40;;
57846;SDS011;43675;50.030;21.952;2024-03-02T01:45:42;62.00;;;55.30;;
57846;SDS011;43675;50.030;21.952;2024-03-02T01:48:16;63.10;;;56.20;;
57846;SDS011;43675;50.030;21.952;2024-03-02T01:50:43;67.00;;;58.30;;
57846;SDS011;43675;50.030;21.952;2024-03-02T01:53:10;65.30;;;58.00;;
57846;SDS011;43675;50.030;21.952;2024-03-02T01:55:37;65.60;;;57.50;;
57846;SDS011;43675;50.030;21.952;2024-03-02T01:58:03;65.80;;;57.40;;
57846;SDS011;43675;50.030;21.952;2024-03-02T02:00:31;68.50;;;58.80;;
57846;SDS011;43675;50.030;21.952;2024-03-02T02:02:58;71.50;;;60.00;;
57846;SDS011;43675;50.030;21.952;2024-03-02T02:05:25;70.20;;;59.90;;
57846;SDS011;43675;50.030;21.952;2024-03-02T02:07:52;65.80;;;57.70;;
57846;SDS011;43675;50.030;21.952;2024-03-02T02:10:18;65.00;;;57.80;;
57846;SDS011;43675;50.030;21.952;2024-03-02T02:12:45;70.60;;;59.60;;
57846;SDS011;43675;50.030;21.952;2024-03-02T02:15:22;67.30;;;57.90;;
57846;SDS011;43675;50.030;21.952;2024-03-02T02:17:53;67.70;;;58.80;;
57846;SDS011;43675;50.030;21.952;2024-03-02T02:20:20;70.10;;;59.40;;
57846;SDS011;43675;50.030;21.952;2024-03-02T02:23:21;71.80;;;59.70;;
57846;SDS011;43675;50.030;21.952;2024-03-02T02:25:40;70.50;;;58.70;;
57846;SDS011;43675;50.030;21.952;2024-03-02T02:28:07;74.70;;;62.00;;
57846;SDS011;43675;50.030;21.952;2024-03-02T02:30:33;74.50;;;62.90;;
57846;SDS011;43675;50.030;21.952;2024-03-02T02:33:00;76.80;;;64.60;;
57846;SDS011;43675;50.030;21.952;2024-03-02T02:35:27;80.30;;;65.90;;
57846;SDS011;43675;50.030;21.952;2024-03-02T02:37:53;80.90;;;66.90;;
57846;SDS011;43675;50.030;21.952;2024-03-02T02:40:22;81.40;;;67.70;;
57846;SDS011;43675;50.030;21.952;2024-03-02T02:42:48;82.30;;;67.60;;
57846;SDS011;43675;50.030;21.952;2024-03-02T02:45:15;85.80;;;68.80;;
57846;SDS011;43675;50.030;21.952;2024-03-02T02:47:42;88.10;;;70.50;;
57846;SDS011;43675;50.030;21.952;2024-03-02T02:50:16;91.40;;;71.20;;
57846;SDS011;43675;50.030;21.952;2024-03-02T02:52:50;88.60;;;70.20;;
57846;SDS011;43675;50.030;21.952;2024-03-02T02:55:16;87.60;;;70.70;;
57846;SDS011;43675;50.030;21.952;2024-03-02T02:57:43;94.00;;;72.60;;
57846;SDS011;43675;50.030;21.952;2024-03-02T03:00:11;91.40;;;71.70;;
57846;SDS011;43675;50.030;21.952;2024-03-02T03:02:43;90.90;;;71.60;;
57846;SDS011;43675;50.030;21.952;2024-03-02T03:05:12;92.20;;;71.90;;
57846;SDS011;43675;50.030;21.952;2024-03-02T03:07:40;90.70;;;72.40;;
57846;SDS011;43675;50.030;21.952;2024-03-02T03:10:07;86.60;;;70.00;;
57846;SDS011;43675;50.030;21.952;2024-03-02T03:12:34;87.80;;;70.10;;
57846;SDS011;43675;50.030;21.952;2024-03-02T03:15:01;85.70;;;68.40;;
57846;SDS011;43675;50.030;21.952;2024-03-02T03:17:36;86.90;;;68.60;;
57846;SDS011;43675;50.030;21.952;2024-03-02T03:20:03;85.00;;;67.50;;
57846;SDS011;43675;50.030;21.952;2024-03-02T03:22:30;81.60;;;66.00;;
57846;SDS011;43675;50.030;21.952;2024-03-02T03:24:57;85.80;;;68.10;;
57846;SDS011;43675;50.030;21.952;2024-03-02T03:27:23;82.90;;;67.00;;
57846;SDS011;43675;50.030;21.952;2024-03-02T03:29:50;86.60;;;69.20;;
57846;SDS011;43675;50.030;21.952;2024-03-02T03:32:17;83.70;;;67.50;;
57846;SDS011;43675;50.030;21.952;2024-03-02T03:34:50;87.20;;;68.80;;
57846;SDS011;43675;50.030;21.952;2024-03-02T03:37:17;84.40;;;68.40;;
57846;SDS011;43675;50.030;21.952;2024-03-02T03:39:43;86.50;;;68.80;;
57846;SDS011;43675;50.030;21.952;2024-03-02T03:42:10;88.20;;;69.20;;
57846;SDS011;43675;50.030;21.952;2024-03-02T03:44:37;87.80;;;71.10;;
57846;SDS011;43675;50.030;21.952;2024-03-02T03:47:04;84.10;;;67.20;;
57846;SDS011;43675;50.030;21.952;2024-03-02T03:49:31;89.10;;;68.90;;
57846;SDS011;43675;50.030;21.952;2024-03-02T03:51:57;82.60;;;67.20;;
57846;SDS011;43675;50.030;21.952;2024-03-02T03:54:31;92.80;;;70.50;;
57846;SDS011;43675;50.030;21.952;2024-03-02T03:56:58;87.80;;;68.70;;
57846;SDS011;43675;50.030;21.952;2024-03-02T03:59:24;88.60;;;69.10;;
57846;SDS011;43675;50.030;21.952;2024-03-02T04:01:51;92.40;;;69.40;;
57846;SDS011;43675;50.030;21.952;2024-03-02T04:04:18;88.90;;;70.10;;
57846;SDS011;43675;50.030;21.952;2024-03-02T04:06:44;86.00;;;67.60;;
57846;SDS011;43675;50.030;21.952;2024-03-02T04:09:11;94.30;;;69.90;;
57846;SDS011;43675;50.030;21.952;2024-03-02T04:11:37;84.70;;;68.10;;
57846;SDS011;43675;50.030;21.952;2024-03-02T04:14:04;84.30;;;67.30;;
57846;SDS011;43675;50.030;21.952;2024-03-02T04:16:31;85.60;;;68.70;;
57846;SDS011;43675;50.030;21.952;2024-03-02T04:18:57;87.20;;;68.50;;
57846;SDS011;43675;50.030;21.952;2024-03-02T04:21:24;89.60;;;68.60;;
57846;SDS011;43675;50.030;21.952;2024-03-02T04:23:50;87.70;;;68.10;;
57846;SDS011;43675;50.030;21.952;2024-03-02T04:26:17;91.20;;;69.10;;
57846;SDS011;43675;50.030;21.952;2024-03-02T04:28:44;88.60;;;68.40;;
57846;SDS011;43675;50.030;21.952;2024-03-02T04:31:10;91.30;;;70.60;;
57846;SDS011;43675;50.030;21.952;2024-03-02T04:33:37;88.70;;;67.20;;
57846;SDS011;43675;50.030;21.952;2024-03-02T04:36:03;86.80;;;68.40;;
57846;SDS011;43675;50.030;21.952;2024-03-02T04:38:30;91.60;;;69.20;;
57846;SDS011;43675;50.030;21.952;2024-03-02T04:40:57;87.40;;;67.90;;
57846;SDS011;43675;50.030;21.952;2024-03-02T04:43:23;91.90;;;66.90;;
57846;SDS011;43675;50.030;21.952;2024-03-02T04:45:50;87.30;;;66.60;;
57846;SDS011;43675;50.030;21.952;2024-03-02T04:48:16;84.40;;;65.90;;
57846;SDS011;43675;50.030;21.952;2024-03-02T04:50:43;88.80;;;67.80;;
57846;SDS011;43675;50.030;21.952;2024-03-02T04:53:16;85.30;;;66.70;;
57846;SDS011;43675;50.030;21.952;2024-03-02T04:55:43;85.50;;;65.80;;
57846;SDS011;43675;50.030;21.952;2024-03-02T04:58:09;85.30;;;66.30;;
57846;SDS011;43675;50.030;21.952;2024-03-02T05:00:36;86.40;;;67.70;;
57846;SDS011;43675;50.030;21.952;2024-03-02T05:03:02;90.20;;;69.00;;
57846;SDS011;43675;50.030;21.952;2024-03-02T05:05:29;85.60;;;68.50;;
57846;SDS011;43675;50.030;21.952;2024-03-02T05:07:56;85.70;;;68.00;;
57846;SDS011;43675;50.030;21.952;2024-03-02T05:10:29;84.90;;;66.00;;
57846;SDS011;43675;50.030;21.952;2024-03-02T05:12:55;87.30;;;67.60;;
57846;SDS011;43675;50.030;21.952;2024-03-02T05:15:22;87.30;;;69.00;;
57846;SDS011;43675;50.030;21.952;2024-03-02T05:17:49;90.10;;;69.50;;
57846;SDS011;43675;50.030;21.952;2024-03-02T05:20:15;86.30;;;69.50;;
57846;SDS011;43675;50.030;21.952;2024-03-02T05:22:42;91.80;;;70.50;;
57846;SDS011;43675;50.030;21.952;2024-03-02T05:25:09;89.70;;;71.70;;
57846;SDS011;43675;50.030;21.952;2024-03-02T05:27:42;88.10;;;70.30;;
57846;SDS011;43675;50.030;21.952;2024-03-02T05:30:09;93.10;;;70.80;;
57846;SDS011;43675;50.030;21.952;2024-03-02T05:32:37;89.30;;;70.30;;
57846;SDS011;43675;50.030;21.952;2024-03-02T05:35:04;92.00;;;71.50;;
57846;SDS011;43675;50.030;21.952;2024-03-02T05:37:31;87.50;;;69.70;;
57846;SDS011;43675;50.030;21.952;2024-03-02T05:39:57;91.60;;;69.10;;
57846;SDS011;43675;50.030;21.952;2024-03-02T05:42:24;89.60;;;69.20;;
57846;SDS011;43675;50.030;21.952;2024-03-02T05:44:51;94.10;;;71.30;;
57846;SDS011;43675;50.030;21.952;2024-03-02T05:47:18;94.20;;;72.20;;
57846;SDS011;43675;50.030;21.952;2024-03-02T05:49:44;86.40;;;68.80;;
57846;SDS011;43675;50.030;21.952;2024-03-02T05:52:11;89.20;;;70.00;;
57846;SDS011;43675;50.030;21.952;2024-03-02T05:54:38;86.80;;;67.60;;
57846;SDS011;43675;50.030;21.952;2024-03-02T05:57:04;89.60;;;67.90;;
57846;SDS011;43675;50.030;21.952;2024-03-02T05:59:31;90.30;;;67.10;;
57846;SDS011;43675;50.030;21.952;2024-03-02T06:01:58;91.40;;;68.60;;
57846;SDS011;43675;50.030;21.952;2024-03-02T06:04:24;87.70;;;66.60;;
57846;SDS011;43675;50.030;21.952;2024-03-02T06:06:51;90.40;;;66.30;;
57846;SDS011;43675;50.030;21.952;2024-03-02T06:09:24;91.10;;;67.40;;
57846;SDS011;43675;50.030;21.952;2024-03-02T06:11:51;89.60;;;66.10;;
57846;SDS011;43675;50.030;21.952;2024-03-02T06:14:17;85.80;;;65.20;;
57846;SDS011;43675;50.030;21.952;2024-03-02T06:16:44;90.40;;;66.10;;
57846;SDS011;43675;50.030;21.952;2024-03-02T06:19:11;89.10;;;65.30;;
57846;SDS011;43675;50.030;21.952;2024-03-02T06:21:38;86.90;;;66.30;;
57846;SDS011;43675;50.030;21.952;2024-03-02T06:24:04;85.00;;;64.50;;
57846;SDS011;43675;50.030;21.952;2024-03-02T06:26:32;88.30;;;64.40;;
57846;SDS011;43675;50.030;21.952;2024-03-02T06:28:58;79.00;;;63.30;;
57846;SDS011;43675;50.030;21.952;2024-03-02T06:31:25;85.90;;;64.70;;
57846;SDS011;43675;50.030;21.952;2024-03-02T06:33:52;83.80;;;62.90;;
57846;SDS011;43675;50.030;21.952;2024-03-02T06:36:18;86.70;;;63.30;;
57846;SDS011;43675;50.030;21.952;2024-03-02T06:38:45;85.70;;;63.20;;
57846;SDS011;43675;50.030;21.952;2024-03-02T06:41:12;83.80;;;63.70;;
57846;SDS011;43675;50.030;21.952;2024-03-02T06:43:38;81.60;;;63.60;;
57846;SDS011;43675;50.030;21.952;2024-03-02T06:46:05;80.50;;;63.60;;
57846;SDS011;43675;50.030;21.952;2024-03-02T06:48:32;83.20;;;63.50;;
57846;SDS011;43675;50.030;21.952;2024-03-02T06:50:58;82.20;;;62.20;;
57846;SDS011;43675;50.030;21.952;2024-03-02T06:53:25;77.40;;;60.20;;
57846;SDS011;43675;50.030;21.952;2024-03-02T06:55:52;83.70;;;61.80;;
57846;SDS011;43675;50.030;21.952;2024-03-02T06:58:18;82.10;;;61.30;;
57846;SDS011;43675;50.030;21.952;2024-03-02T07:00:45;78.00;;;60.30;;
57846;SDS011;43675;50.030;21.952;2024-03-02T07:03:11;80.50;;;61.20;;
57846;SDS011;43675;50.030;21.952;2024-03-02T07:05:39;77.70;;;60.30;;
57846;SDS011;43675;50.030;21.952;2024-03-02T07:08:12;76.60;;;60.20;;
57846;SDS011;43675;50.030;21.952;2024-03-02T07:10:45;79.50;;;60.30;;
57846;SDS011;43675;50.030;21.952;2024-03-02T07:13:12;79.10;;;59.70;;
57846;SDS011;43675;50.030;21.952;2024-03-02T07:15:38;81.00;;;58.90;;
57846;SDS011;43675;50.030;21.952;2024-03-02T07:18:05;72.30;;;57.70;;
57846;SDS011;43675;50.030;21.952;2024-03-02T07:20:38;71.10;;;57.10;;
57846;SDS011;43675;50.030;21.952;2024-03-02T07:23:04;76.50;;;59.00;;
57846;SDS011;43675;50.030;21.952;2024-03-02T07:25:31;73.90;;;57.60;;
57846;SDS011;43675;50.030;21.952;2024-03-02T07:27:58;71.50;;;57.40;;
57846;SDS011;43675;50.030;21.952;2024-03-02T07:30:24;74.40;;;56.20;;
57846;SDS011;43675;50.030;21.952;2024-03-02T07:32:51;70.60;;;56.60;;
57846;SDS011;43675;50.030;21.952;2024-03-02T07:35:17;76.80;;;58.30;;
57846;SDS011;43675;50.030;21.952;2024-03-02T07:37:44;76.90;;;57.40;;
57846;SDS011;43675;50.030;21.952;2024-03-02T07:40:11;71.30;;;55.90;;
57846;SDS011;43675;50.030;21.952;2024-03-02T07:42:39;68.50;;;54.80;;
57846;SDS011;43675;50.030;21.952;2024-03-02T07:45:07;67.60;;;55.50;;
57846;SDS011;43675;50.030;21.952;2024-03-02T07:47:40;71.00;;;56.30;;
57846;SDS011;43675;50.030;21.952;2024-03-02T07:50:07;67.80;;;55.80;;
57846;SDS011;43675;50.030;21.952;2024-03-02T07:52:34;68.40;;;55.30;;
57846;SDS011;43675;50.030;21.952;2024-03-02T07:55:00;71.50;;;55.70;;
57846;SDS011;43675;50.030;21.952;2024-03-02T07:57:27;67.10;;;54.10;;
57846;SDS011;43675;50.030;21.952;2024-03-02T07:59:54;68.70;;;55.80;;
57846;SDS011;43675;50.030;21.952;2024-03-02T08:02:20;70.10;;;54.10;;
57846;SDS011;43675;50.030;21.952;2024-03-02T08:04:47;71.10;;;54.10;;
57846;SDS011;43675;50.030;21.952;2024-03-02T08:07:14;68.00;;;53.60;;
57846;SDS011;43675;50.030;21.952;2024-03-02T08:09:40;66.50;;;55.10;;
57846;SDS011;43675;50.030;21.952;2024-03-02T08:12:08;69.80;;;54.90;;
57846;SDS011;43675;50.030;21.952;2024-03-02T08:14:34;66.70;;;54.10;;
57846;SDS011;43675;50.030;21.952;2024-03-02T08:17:01;66.60;;;53.60;;
57846;SDS011;43675;50.030;21.952;2024-03-02T08:19:28;67.00;;;54.20;;
57846;SDS011;43675;50.030;21.952;2024-03-02T08:21:55;67.20;;;54.70;;
57846;SDS011;43675;50.030;21.952;2024-03-02T08:24:22;64.00;;;54.00;;
57846;SDS011;43675;50.030;21.952;2024-03-02T08:26:55;69.80;;;54.60;;
57846;SDS011;43675;50.030;21.952;2024-03-02T08:29:22;64.00;;;53.90;;
57846;SDS011;43675;50.030;21.952;2024-03-02T08:31:49;67.60;;;53.70;;
57846;SDS011;43675;50.030;21.952;2024-03-02T08:34:16;66.30;;;54.20;;
57846;SDS011;43675;50.030;21.952;2024-03-02T08:36:42;67.10;;;55.00;;
57846;SDS011;43675;50.030;21.952;2024-03-02T08:39:09;67.40;;;54.70;;
57846;SDS011;43675;50.030;21.952;2024-03-02T08:41:35;66.60;;;54.00;;
57846;SDS011;43675;50.030;21.952;2024-03-02T08:44:02;70.10;;;55.80;;
57846;SDS011;43675;50.030;21.952;2024-03-02T08:46:29;70.00;;;55.90;;
57846;SDS011;43675;50.030;21.952;2024-03-02T08:48:55;66.10;;;56.10;;
57846;SDS011;43675;50.030;21.952;2024-03-02T08:51:22;67.40;;;54.80;;
57846;SDS011;43675;50.030;21.952;2024-03-02T08:53:50;68.70;;;54.20;;
57846;SDS011;43675;50.030;21.952;2024-03-02T08:56:17;64.90;;;53.80;;
57846;SDS011;43675;50.030;21.952;2024-03-02T08:58:43;66.60;;;55.50;;
57846;SDS011;43675;50.030;21.952;2024-03-02T09:01:10;65.10;;;55.40;;
57846;SDS011;43675;50.030;21.952;2024-03-02T09:03:37;65.40;;;55.80;;
57846;SDS011;43675;50.030;21.952;2024-03-02T09:06:04;69.30;;;55.30;;
57846;SDS011;43675;50.030;21.952;2024-03-02T09:08:31;63.70;;;54.20;;
57846;SDS011;43675;50.030;21.952;2024-03-02T09:10:57;65.90;;;54.20;;
57846;SDS011;43675;50.030;21.952;2024-03-02T09:13:24;65.70;;;55.50;;
57846;SDS011;43675;50.030;21.952;2024-03-02T09:15:51;66.50;;;54.30;;
57846;SDS011;43675;50.030;21.952;2024-03-02T09:18:17;67.80;;;53.40;;
57846;SDS011;43675;50.030;21.952;2024-03-02T09:20:44;63.30;;;52.80;;
57846;SDS011;43675;50.030;21.952;2024-03-02T09:23:17;62.40;;;53.00;;
57846;SDS011;43675;50.030;21.952;2024-03-02T09:25:44;62.60;;;53.30;;
57846;SDS011;43675;50.030;21.952;2024-03-02T09:28:10;62.90;;;52.60;;
57846;SDS011;43675;50.030;21.952;2024-03-02T09:30:37;62.70;;;52.70;;
57846;SDS011;43675;50.030;21.952;2024-03-02T09:33:03;62.70;;;53.40;;
57846;SDS011;43675;50.030;21.952;2024-03-02T09:35:30;66.00;;;53.40;;
57846;SDS011;43675;50.030;21.952;2024-03-02T09:37:57;61.30;;;52.30;;
57846;SDS011;43675;50.030;21.952;2024-03-02T09:40:23;64.50;;;53.50;;
57846;SDS011;43675;50.030;21.952;2024-03-02T09:42:50;64.90;;;54.80;;
57846;SDS011;43675;50.030;21.952;2024-03-02T09:45:18;71.40;;;55.00;;
57846;SDS011;43675;50.030;21.952;2024-03-02T09:47:56;64.00;;;54.00;;
57846;SDS011;43675;50.030;21.952;2024-03-02T09:50:23;64.40;;;54.60;;
57846;SDS011;43675;50.030;21.952;2024-03-02T09:52:50;65.40;;;53.10;;
57846;SDS011;43675;50.030;21.952;2024-03-02T09:55:16;64.80;;;54.80;;
57846;SDS011;43675;50.030;21.952;2024-03-02T09:57:43;65.10;;;54.90;;
57846;SDS011;43675;50.030;21.952;2024-03-02T10:00:13;64.70;;;55.50;;
57846;SDS011;43675;50.030;21.952;2024-03-02T10:02:40;71.00;;;56.40;;
57846;SDS011;43675;50.030;21.952;2024-03-02T10:05:08;65.50;;;54.90;;
57846;SDS011;43675;50.030;21.952;2024-03-02T10:07:35;62.60;;;53.40;;
57846;SDS011;43675;50.030;21.952;2024-03-02T10:10:14;66.30;;;55.10;;
57846;SDS011;43675;50.030;21.952;2024-03-02T10:12:41;68.90;;;55.10;;
57846;SDS011;43675;50.030;21.952;2024-03-02T10:15:08;63.80;;;54.80;;
57846;SDS011;43675;50.030;21.952;2024-03-02T10:17:35;63.80;;;54.60;;
57846;SDS011;43675;50.030;21.952;2024-03-02T10:20:20;66.10;;;55.30;;
57846;SDS011;43675;50.030;21.952;2024-03-02T10:22:48;68.60;;;56.50;;
57846;SDS011;43675;50.030;21.952;2024-03-02T10:25:33;66.90;;;55.80;;
57846;SDS011;43675;50.030;21.952;2024-03-02T10:28:06;67.60;;;56.30;;
57846;SDS011;43675;50.030;21.952;2024-03-02T10:30:33;70.10;;;57.80;;
57846;SDS011;43675;50.030;21.952;2024-03-02T10:33:01;72.20;;;59.10;;
57846;SDS011;43675;50.030;21.952;2024-03-02T10:35:28;75.70;;;62.20;;
57846;SDS011;43675;50.030;21.952;2024-03-02T10:37:55;68.80;;;58.60;;
57846;SDS011;43675;50.030;21.952;2024-03-02T10:40:21;70.80;;;58.30;;
57846;SDS011;43675;50.030;21.952;2024-03-02T10:42:49;70.30;;;59.60;;
57846;SDS011;43675;50.030;21.952;2024-03-02T10:45:16;67.80;;;57.20;;
57846;SDS011;43675;50.030;21.952;2024-03-02T10:47:43;67.90;;;56.50;;
57846;SDS011;43675;50.030;21.952;2024-03-02T10:50:09;69.50;;;57.60;;
57846;SDS011;43675;50.030;21.952;2024-03-02T10:52:36;68.30;;;57.60;;
57846;SDS011;43675;50.030;21.952;2024-03-02T10:55:04;70.80;;;57.70;;
57846;SDS011;43675;50.030;21.952;2024-03-02T10:57:33;71.60;;;58.30;;
57846;SDS011;43675;50.030;21.952;2024-03-02T11:00:07;67.20;;;58.10;;
57846;SDS011;43675;50.030;21.952;2024-03-02T11:02:38;69.20;;;57.00;;
57846;SDS011;43675;50.030;21.952;2024-03-02T11:05:09;70.30;;;57.10;;
57846;SDS011;43675;50.030;21.952;2024-03-02T11:07:38;68.30;;;58.20;;
57846;SDS011;43675;50.030;21.952;2024-03-02T11:10:06;69.70;;;58.20;;
57846;SDS011;43675;50.030;21.952;2024-03-02T11:12:53;69.10;;;56.80;;
57846;SDS011;43675;50.030;21.952;2024-03-02T11:15:25;68.60;;;56.70;;
57846;SDS011;43675;50.030;21.952;2024-03-02T11:17:53;71.00;;;57.90;;
57846;SDS011;43675;50.030;21.952;2024-03-02T11:20:21;66.60;;;56.50;;
57846;SDS011;43675;50.030;21.952;2024-03-02T11:22:48;65.00;;;56.40;;
57846;SDS011;43675;50.030;21.952;2024-03-02T11:25:27;69.50;;;58.10;;
57846;SDS011;43675;50.030;21.952;2024-03-02T11:28:06;71.10;;;57.30;;
57846;SDS011;43675;50.030;21.952;2024-03-02T11:33:00;68.50;;;58.50;;
57846;SDS011;43675;50.030;21.952;2024-03-02T11:35:27;69.30;;;58.30;;
57846;SDS011;43675;50.030;21.952;2024-03-02T11:37:54;68.80;;;58.00;;
57846;SDS011;43675;50.030;21.952;2024-03-02T11:40:22;69.80;;;58.30;;
57846;SDS011;43675;50.030;21.952;2024-03-02T11:42:50;71.40;;;59.50;;
57846;SDS011;43675;50.030;21.952;2024-03-02T11:45:17;74.10;;;62.10;;
57846;SDS011;43675;50.030;21.952;2024-03-02T11:47:55;74.10;;;60.50;;
57846;SDS011;43675;50.030;21.952;2024-03-02T11:50:30;70.80;;;59.40;;
57846;SDS011;43675;50.030;21.952;2024-03-02T11:52:59;68.00;;;57.10;;
57846;SDS011;43675;50.030;21.952;2024-03-02T11:55:26;66.20;;;57.50;;
57846;SDS011;43675;50.030;21.952;2024-03-02T11:57:53;65.40;;;55.70;;
57846;SDS011;43675;50.030;21.952;2024-03-02T12:00:20;68.00;;;58.10;;
57846;SDS011;43675;50.030;21.952;2024-03-02T12:03:00;69.40;;;58.00;;
57846;SDS011;43675;50.030;21.952;2024-03-02T12:05:33;65.70;;;56.30;;
57846;SDS011;43675;50.030;21.952;2024-03-02T12:08:03;68.50;;;58.10;;
57846;SDS011;43675;50.030;21.952;2024-03-02T12:10:31;69.00;;;58.60;;
57846;SDS011;43675;50.030;21.952;2024-03-02T12:12:59;64.60;;;57.30;;
57846;SDS011;43675;50.030;21.952;2024-03-02T12:15:27;64.40;;;55.50;;
57846;SDS011;43675;50.030;21.952;2024-03-02T12:17:58;68.50;;;58.90;;
57846;SDS011;43675;50.030;21.952;2024-03-02T12:20:27;66.50;;;58.80;;
57846;SDS011;43675;50.030;21.952;2024-03-02T12:22:57;63.80;;;55.70;;
57846;SDS011;43675;50.030;21.952;2024-03-02T12:25:25;64.30;;;55.80;;
57846;SDS011;43675;50.030;21.952;2024-03-02T12:27:54;65.50;;;54.80;;
57846;SDS011;43675;50.030;21.952;2024-03-02T12:30:22;66.30;;;55.20;;
57846;SDS011;43675;50.030;21.952;2024-03-02T12:32:49;66.90;;;56.50;;
57846;SDS011;43675;50.030;21.952;2024-03-02T12:35:17;65.60;;;54.80;;
57846;SDS011;43675;50.030;21.952;2024-03-02T12:37:44;64.20;;;56.00;;
57846;SDS011;43675;50.030;21.952;2024-03-02T12:40:13;63.80;;;55.10;;
57846;SDS011;43675;50.030;21.952;2024-03-02T12:42:40;67.40;;;57.30;;
57846;SDS011;43675;50.030;21.952;2024-03-02T12:45:07;67.00;;;58.60;;
57846;SDS011;43675;50.030;21.952;2024-03-02T12:47:35;65.00;;;56.50;;
57846;SDS011;43675;50.030;21.952;2024-03-02T12:50:09;63.70;;;56.20;;
57846;SDS011;43675;50.030;21.952;2024-03-02T12:52:42;63.70;;;55.40;;
57846;SDS011;43675;50.030;21.952;2024-03-02T12:55:09;65.40;;;56.40;;
57846;SDS011;43675;50.030;21.952;2024-03-02T12:57:36;63.90;;;55.10;;
57846;SDS011;43675;50.030;21.952;2024-03-02T13:00:03;65.70;;;57.60;;
57846;SDS011;43675;50.030;21.952;2024-03-02T13:02:31;66.10;;;56.30;;
57846;SDS011;43675;50.030;21.952;2024-03-02T13:04:58;66.30;;;57.50;;
57846;SDS011;43675;50.030;21.952;2024-03-02T13:07:25;65.60;;;57.00;;
57846;SDS011;43675;50.030;21.952;2024-03-02T13:09:52;68.80;;;56.70;;
57846;SDS011;43675;50.030;21.952;2024-03-02T13:12:20;66.50;;;56.50;;
57846;SDS011;43675;50.030;21.952;2024-03-02T13:14:53;65.40;;;57.40;;
57846;SDS011;43675;50.030;21.952;2024-03-02T13:17:20;65.60;;;56.00;;
57846;SDS011;43675;50.030;21.952;2024-03-02T13:19:53;68.00;;;57.20;;
57846;SDS011;43675;50.030;21.952;2024-03-02T13:22:22;67.30;;;57.80;;
57846;SDS011;43675;50.030;21.952;2024-03-02T13:24:49;66.80;;;58.00;;
57846;SDS011;43675;50.030;21.952;2024-03-02T13:27:16;67.10;;;57.80;;
57846;SDS011;43675;50.030;21.952;2024-03-02T13:29:43;67.70;;;57.70;;
57846;SDS011;43675;50.030;21.952;2024-03-02T13:32:10;72.20;;;58.60;;
57846;SDS011;43675;50.030;21.952;2024-03-02T13:34:36;68.30;;;58.40;;
57846;SDS011;43675;50.030;21.952;2024-03-02T13:37:03;74.70;;;60.30;;
57846;SDS011;43675;50.030;21.952;2024-03-02T13:39:30;71.50;;;60.40;;
57846;SDS011;43675;50.030;21.952;2024-03-02T13:41:57;70.50;;;58.80;;
57846;SDS011;43675;50.030;21.952;2024-03-02T13:44:25;76.10;;;60.00;;
57846;SDS011;43675;50.030;21.952;2024-03-02T13:46:51;69.80;;;58.50;;
57846;SDS011;43675;50.030;21.952;2024-03-02T13:49:18;71.90;;;58.60;;
57846;SDS011;43675;50.030;21.952;2024-03-02T13:51:50;71.70;;;61.20;;
57846;SDS011;43675;50.030;21.952;2024-03-02T13:54:17;71.10;;;60.10;;
57846;SDS011;43675;50.030;21.952;2024-03-02T13:56:50;71.00;;;60.40;;
57846;SDS011;43675;50.030;21.952;2024-03-02T13:59:17;71.30;;;60.50;;
57846;SDS011;43675;50.030;21.952;2024-03-02T14:01:44;73.40;;;61.30;;
57846;SDS011;43675;50.030;21.952;2024-03-02T14:04:11;69.90;;;61.10;;
57846;SDS011;43675;50.030;21.952;2024-03-02T14:06:38;73.80;;;60.70;;
57846;SDS011;43675;50.030;21.952;2024-03-02T14:09:04;71.30;;;61.80;;
57846;SDS011;43675;50.030;21.952;2024-03-02T14:11:31;74.50;;;63.40;;
57846;SDS011;43675;50.030;21.952;2024-03-02T14:13:58;80.80;;;66.60;;
57846;SDS011;43675;50.030;21.952;2024-03-02T14:16:24;77.10;;;63.70;;
57846;SDS011;43675;50.030;21.952;2024-03-02T14:18:51;71.70;;;63.90;;
57846;SDS011;43675;50.030;21.952;2024-03-02T14:21:17;71.30;;;63.20;;